Airfield :
LOGIN :

Register | Disclaimer

   EN    FR    IT 

 










Legend :    VFR   Marginal VFR   IFR   Intensive IFR   Very Intensive IFR
Visi :
Ceiling :
>= 8 km
>= 3000ft
5 to 8 km
1000 to 3000 ft
1500m to 5 km
500 to 1000 ft
800 to 1500m
200 to 500 ft
< 800m
< 200 ft
Symbols :   Thunderstorms  Fog  Heavy snow  Heavy precipitations  Wind > 20 kt
SIGMETs :     Misc.  Thunderstorms  Icing  Turbulence  Mountain Waves  Volcanic Ashes






- Airport Elevation : 665 ft
- IATA code : NOC


EIKN - Connaught / Knock- Ireland West

CURRENT METAR :
  • 291230Z 24020KT 9999 BKN017 BKN035 07/05 Q1002 NOSIG

EXPIRED METARs :
  • 291200Z 23012KT 190V250 9999 SCT017 BKN035 06/05 Q1002 NOSIG
  • 291130Z 23015KT 9999 SCT017 OVC035 06/05 Q1002 NOSIG
  • 291100Z 21008KT 160V250 9999 -RADZ SCT017 OVC024 06/04 Q1002 NOSIG
  • 291030Z 22009KT 180V240 9999 SCT022 BKN038 05/04 Q1002 NOSIG
  • 291000Z 21013KT 9999 SCT022 BKN040 05/04 Q1002 NOSIG
  • 290930Z 21012KT 180V260 9999 SCT022 BKN035 04/03 Q1001 NOSIG

TAF TAF EIKN
Valid from the 29 at 12:00 until the 30 at 12:00 UTC


291100Z 2912/3012 23013KT 9999 SCT020 BKN040
TEMPO 2912/2918 23018G28KT
PROB40
TEMPO 2912/2918 BKN012
PROB30
TEMPO 2920/2923 4000 BR
BECMG 3001/3003 18013KT BKN007
TEMPO 3002/3006 19015G25KT
BECMG 3005/3007 1500 -RADZ BR BKN003
TEMPO 3007/3011 0200 FG OVC001
BECMG 3009/3011 21015G25KT
BECMG 3011/3012 24017G27KT 9999 NSW BKN008



MET'MAP, your aeronautical weather chart ! - Copyright ORBIFLY December 2007 - Disclaimer

ORBIFLY MET'MAP TEAM :

Programming & Development : Alexandra Zaïnal
Concept & original design : Baudouin d'Aumeries
Assistance for programming : Marc-Olivier Méhu
Technical & hardware support : Manuel Goepfert

Contact : metmap@orbifly.com




SOURCES & CREDITS :

   NOAA